Terminal Aerodrome Forecast
Issued by NWS

Home | Current Version | Previous Version | Text Only | Print | Product List | Glossary On
Versions: 1 2 3 4 5 6 7 8 9 10 11 12 13 14 15 16 17 18 19 20 21 22 23 24 25 26 27 28
736
FTUS41 KOKX 281931 AAA
TAFSWF
TAF AMD
KSWF 281931Z 2820/2924 VRB06KT P6SM OVC150
     FM282100 VRB06KT P6SM -SHRA OVC060
     FM290900 10007KT P6SM BKN060
     FM291800 13006KT P6SM BKN060
      AMD NOT SKED=

USA.gov is the U.S. government's official web portal to all federal, state and local government web resources and services.